sensor_id;sensor_type;location;lat;lon;timestamp;pressure;altitude;pressure_sealevel;temperature;humidity
12868;BME280;33517;49.866;8.320;2023-04-26T00:02:07;100660.03;;;3.61;78.21
12868;BME280;33517;49.866;8.320;2023-04-26T00:05:02;100669.81;;;3.58;78.55
12868;BME280;33517;49.866;8.320;2023-04-26T00:07:55;100664.97;;;3.53;78.49
12868;BME280;33517;49.866;8.320;2023-04-26T00:10:47;100667.78;;;3.50;78.17
12868;BME280;33517;49.866;8.320;2023-04-26T00:13:39;100660.09;;;3.49;78.49
12868;BME280;33517;49.866;8.320;2023-04-26T00:16:31;100665.53;;;3.46;78.54
12868;BME280;33517;49.866;8.320;2023-04-26T00:19:23;100667.41;;;3.44;79.17
12868;BME280;33517;49.866;8.320;2023-04-26T00:22:16;100661.38;;;3.43;79.17
12868;BME280;33517;49.866;8.320;2023-04-26T00:25:09;100673.66;;;3.41;79.36
12868;BME280;33517;49.866;8.320;2023-04-26T00:28:02;100670.47;;;3.38;79.32
12868;BME280;33517;49.866;8.320;2023-04-26T00:30:54;100666.31;;;3.35;79.56
12868;BME280;33517;49.866;8.320;2023-04-26T00:33:47;100673.50;;;3.32;79.57
12868;BME280;33517;49.866;8.320;2023-04-26T00:36:39;100668.63;;;3.27;79.46
12868;BME280;33517;49.866;8.320;2023-04-26T00:39:32;100665.78;;;3.19;79.07
12868;BME280;33517;49.866;8.320;2023-04-26T00:42:26;100663.75;;;3.12;79.02
12868;BME280;33517;49.866;8.320;2023-04-26T00:45:18;100671.63;;;3.10;79.24
12868;BME280;33517;49.866;8.320;2023-04-26T00:48:10;100672.28;;;3.14;79.63
12868;BME280;33517;49.866;8.320;2023-04-26T00:51:02;100665.00;;;3.30;79.94
12868;BME280;33517;49.866;8.320;2023-04-26T00:53:55;100667.06;;;3.48;81.17
12868;BME280;33517;49.866;8.320;2023-04-26T00:56:49;100667.59;;;3.64;80.54
12868;BME280;33517;49.866;8.320;2023-04-26T00:59:42;100663.56;;;3.71;80.07
12868;BME280;33517;49.866;8.320;2023-04-26T01:02:34;100662.97;;;3.68;79.78
12868;BME280;33517;49.866;8.320;2023-04-26T01:05:27;100661.78;;;3.61;79.67
12868;BME280;33517;49.866;8.320;2023-04-26T01:08:19;100665.81;;;3.54;79.40
12868;BME280;33517;49.866;8.320;2023-04-26T01:11:12;100659.34;;;3.36;79.45
12868;BME280;33517;49.866;8.320;2023-04-26T01:14:06;100664.47;;;3.14;80.33
12868;BME280;33517;49.866;8.320;2023-04-26T01:16:58;100669.94;;;2.98;79.98
12868;BME280;33517;49.866;8.320;2023-04-26T01:19:51;100666.22;;;2.90;80.26
12868;BME280;33517;49.866;8.320;2023-04-26T01:22:44;100666.66;;;2.83;80.79
12868;BME280;33517;49.866;8.320;2023-04-26T01:25:37;100671.38;;;2.78;81.00
12868;BME280;33517;49.866;8.320;2023-04-26T01:28:30;100664.72;;;2.74;80.71
12868;BME280;33517;49.866;8.320;2023-04-26T01:31:21;100664.13;;;2.71;80.12
12868;BME280;33517;49.866;8.320;2023-04-26T01:34:13;100668.59;;;2.69;80.63
12868;BME280;33517;49.866;8.320;2023-04-26T01:37:05;100661.03;;;2.66;80.35
12868;BME280;33517;49.866;8.320;2023-04-26T01:39:59;100666.22;;;2.66;80.17
12868;BME280;33517;49.866;8.320;2023-04-26T01:42:51;100664.56;;;2.65;80.83
12868;BME280;33517;49.866;8.320;2023-04-26T01:45:45;100665.50;;;2.64;80.48
12868;BME280;33517;49.866;8.320;2023-04-26T01:48:37;100665.69;;;2.61;80.80
12868;BME280;33517;49.866;8.320;2023-04-26T01:51:29;100663.34;;;2.58;80.32
12868;BME280;33517;49.866;8.320;2023-04-26T01:54:22;100667.81;;;2.56;80.89
12868;BME280;33517;49.866;8.320;2023-04-26T01:57:15;100665.41;;;2.53;80.22
12868;BME280;33517;49.866;8.320;2023-04-26T02:00:08;100664.78;;;2.49;81.27
12868;BME280;33517;49.866;8.320;2023-04-26T02:03:01;100669.38;;;2.46;80.84
12868;BME280;33517;49.866;8.320;2023-04-26T02:05:52;100663.56;;;2.42;81.37
12868;BME280;33517;49.866;8.320;2023-04-26T02:08:44;100668.16;;;2.39;80.97
12868;BME280;33517;49.866;8.320;2023-04-26T02:11:36;100666.72;;;2.35;81.36
12868;BME280;33517;49.866;8.320;2023-04-26T02:14:29;100671.19;;;2.33;80.98
12868;BME280;33517;49.866;8.320;2023-04-26T02:17:21;100666.19;;;2.30;81.07
12868;BME280;33517;49.866;8.320;2023-04-26T02:20:13;100667.13;;;2.29;81.20
12868;BME280;33517;49.866;8.320;2023-04-26T02:23:05;100674.09;;;2.28;81.41
12868;BME280;33517;49.866;8.320;2023-04-26T02:25:57;100669.72;;;2.29;81.80
12868;BME280;33517;49.866;8.320;2023-04-26T02:28:49;100667.63;;;2.46;82.21
12868;BME280;33517;49.866;8.320;2023-04-26T02:31:42;100670.59;;;2.65;82.04
12868;BME280;33517;49.866;8.320;2023-04-26T02:34:34;100675.97;;;2.75;82.29
12868;BME280;33517;49.866;8.320;2023-04-26T02:37:26;100668.66;;;2.80;82.73
12868;BME280;33517;49.866;8.320;2023-04-26T02:40:18;100668.44;;;2.83;82.70
12868;BME280;33517;49.866;8.320;2023-04-26T02:43:10;100671.84;;;2.83;82.46
12868;BME280;33517;49.866;8.320;2023-04-26T02:46:05;100666.16;;;2.78;82.94
12868;BME280;33517;49.866;8.320;2023-04-26T02:48:59;100666.91;;;2.68;82.24
12868;BME280;33517;49.866;8.320;2023-04-26T02:51:50;100663.81;;;2.63;83.45
12868;BME280;33517;49.866;8.320;2023-04-26T02:54:42;100660.19;;;2.65;82.92
12868;BME280;33517;49.866;8.320;2023-04-26T02:57:34;100662.91;;;2.64;83.58
12868;BME280;33517;49.866;8.320;2023-04-26T03:00:26;100662.63;;;2.56;83.33
12868;BME280;33517;49.866;8.320;2023-04-26T03:03:18;100664.78;;;2.49;83.43
12868;BME280;33517;49.866;8.320;2023-04-26T03:06:11;100655.13;;;2.51;83.58
12868;BME280;33517;49.866;8.320;2023-04-26T03:09:03;100656.88;;;2.51;83.57
12868;BME280;33517;49.866;8.320;2023-04-26T03:11:55;100658.19;;;2.33;84.27
12868;BME280;33517;49.866;8.320;2023-04-26T03:14:47;100657.59;;;2.17;85.29
12868;BME280;33517;49.866;8.320;2023-04-26T03:17:39;100659.97;;;2.07;86.06
12868;BME280;33517;49.866;8.320;2023-04-26T03:20:30;100657.41;;;1.95;87.08
12868;BME280;33517;49.866;8.320;2023-04-26T03:23:24;100657.72;;;1.90;88.56
12868;BME280;33517;49.866;8.320;2023-04-26T03:26:15;100657.09;;;1.86;89.25
12868;BME280;33517;49.866;8.320;2023-04-26T03:29:07;100661.97;;;1.91;87.69
12868;BME280;33517;49.866;8.320;2023-04-26T03:31:59;100656.88;;;1.89;87.35
12868;BME280;33517;49.866;8.320;2023-04-26T03:34:51;100661.44;;;1.86;86.51
12868;BME280;33517;49.866;8.320;2023-04-26T03:37:44;100665.19;;;1.82;86.22
12868;BME280;33517;49.866;8.320;2023-04-26T03:40:37;100671.44;;;1.79;86.60
12868;BME280;33517;49.866;8.320;2023-04-26T03:43:29;100668.94;;;1.78;86.31
12868;BME280;33517;49.866;8.320;2023-04-26T03:46:21;100672.44;;;1.77;86.73
12868;BME280;33517;49.866;8.320;2023-04-26T03:49:13;100669.03;;;1.76;86.54
12868;BME280;33517;49.866;8.320;2023-04-26T03:52:05;100662.28;;;1.74;86.28
12868;BME280;33517;49.866;8.320;2023-04-26T03:54:57;100671.53;;;1.78;86.32
12868;BME280;33517;49.866;8.320;2023-04-26T03:57:50;100658.63;;;1.76;86.94
12868;BME280;33517;49.866;8.320;2023-04-26T04:00:43;100661.75;;;1.69;86.52
12868;BME280;33517;49.866;8.320;2023-04-26T04:03:35;100661.75;;;1.56;88.13
12868;BME280;33517;49.866;8.320;2023-04-26T04:06:27;100662.16;;;1.50;88.42
12868;BME280;33517;49.866;8.320;2023-04-26T04:09:19;100661.31;;;1.50;88.60
12868;BME280;33517;49.866;8.320;2023-04-26T04:12:11;100666.81;;;1.45;88.09
12868;BME280;33517;49.866;8.320;2023-04-26T04:15:05;100667.13;;;1.41;88.70
12868;BME280;33517;49.866;8.320;2023-04-26T04:17:57;100673.66;;;1.46;89.25
12868;BME280;33517;49.866;8.320;2023-04-26T04:20:49;100673.44;;;1.49;88.59
12868;BME280;33517;49.866;8.320;2023-04-26T04:23:41;100666.59;;;1.48;88.71
12868;BME280;33517;49.866;8.320;2023-04-26T04:26:34;100663.00;;;1.51;89.73
12868;BME280;33517;49.866;8.320;2023-04-26T04:29:26;100673.03;;;1.55;90.35
12868;BME280;33517;49.866;8.320;2023-04-26T04:32:20;100675.34;;;1.60;90.15
12868;BME280;33517;49.866;8.320;2023-04-26T04:35:12;100676.47;;;1.68;90.22
12868;BME280;33517;49.866;8.320;2023-04-26T04:38:04;100678.47;;;1.77;90.21
12868;BME280;33517;49.866;8.320;2023-04-26T04:40:56;100683.03;;;1.86;91.86
12868;BME280;33517;49.866;8.320;2023-04-26T04:43:48;100685.94;;;1.95;92.64
12868;BME280;33517;49.866;8.320;2023-04-26T04:46:41;100687.28;;;2.13;92.85
12868;BME280;33517;49.866;8.320;2023-04-26T04:49:34;100697.13;;;2.33;91.19
12868;BME280;33517;49.866;8.320;2023-04-26T04:52:26;100691.84;;;2.47;90.38
12868;BME280;33517;49.866;8.320;2023-04-26T04:55:18;100702.28;;;2.58;89.95
12868;BME280;33517;49.866;8.320;2023-04-26T04:58:10;100700.19;;;2.63;90.09
12868;BME280;33517;49.866;8.320;2023-04-26T05:01:04;100702.25;;;2.70;91.10
12868;BME280;33517;49.866;8.320;2023-04-26T05:03:56;100699.53;;;2.85;90.80
12868;BME280;33517;49.866;8.320;2023-04-26T05:06:49;100702.91;;;2.98;89.93
12868;BME280;33517;49.866;8.320;2023-04-26T05:09:41;100703.06;;;3.07;89.76
12868;BME280;33517;49.866;8.320;2023-04-26T05:12:33;100718.28;;;3.24;89.70
12868;BME280;33517;49.866;8.320;2023-04-26T05:15:26;100715.78;;;3.46;89.05
12868;BME280;33517;49.866;8.320;2023-04-26T05:18:17;100709.47;;;3.61;88.52
12868;BME280;33517;49.866;8.320;2023-04-26T05:21:09;100716.00;;;3.78;87.77
12868;BME280;33517;49.866;8.320;2023-04-26T05:24:03;100718.88;;;3.97;87.27
12868;BME280;33517;49.866;8.320;2023-04-26T05:26:56;100712.63;;;4.11;86.59
12868;BME280;33517;49.866;8.320;2023-04-26T05:29:48;100714.78;;;4.28;86.17
12868;BME280;33517;49.866;8.320;2023-04-26T05:32:40;100717.97;;;4.42;85.81
12868;BME280;33517;49.866;8.320;2023-04-26T05:35:33;100718.09;;;4.63;85.52
12868;BME280;33517;49.866;8.320;2023-04-26T05:38:25;100716.16;;;4.87;85.75
12868;BME280;33517;49.866;8.320;2023-04-26T05:41:19;100721.88;;;5.24;85.50
12868;BME280;33517;49.866;8.320;2023-04-26T05:44:11;100714.53;;;6.02;84.95
12868;BME280;33517;49.866;8.320;2023-04-26T05:47:03;100709.75;;;8.93;75.54
12868;BME280;33517;49.866;8.320;2023-04-26T05:49:55;100714.28;;;11.40;66.82
12868;BME280;33517;49.866;8.320;2023-04-26T05:52:47;100701.25;;;13.12;60.16
12868;BME280;33517;49.866;8.320;2023-04-26T05:55:39;100713.63;;;14.17;56.74
12868;BME280;33517;49.866;8.320;2023-04-26T05:58:33;100719.56;;;15.06;54.89
12868;BME280;33517;49.866;8.320;2023-04-26T06:01:24;100730.44;;;15.68;52.92
12868;BME280;33517;49.866;8.320;2023-04-26T06:04:17;100742.63;;;15.84;49.40
12868;BME280;33517;49.866;8.320;2023-04-26T06:07:09;100740.72;;;15.99;49.82
12868;BME280;33517;49.866;8.320;2023-04-26T06:10:01;100746.34;;;16.38;49.76
12868;BME280;33517;49.866;8.320;2023-04-26T06:12:52;100744.03;;;17.03;47.77
12868;BME280;33517;49.866;8.320;2023-04-26T06:15:46;100758.19;;;17.90;45.95
12868;BME280;33517;49.866;8.320;2023-04-26T06:18:38;100757.34;;;18.68;44.96
12868;BME280;33517;49.866;8.320;2023-04-26T06:21:29;100761.38;;;18.90;44.12
12868;BME280;33517;49.866;8.320;2023-04-26T06:24:22;100769.63;;;18.82;42.17
12868;BME280;33517;49.866;8.320;2023-04-26T06:27:15;100779.63;;;16.40;44.91
12868;BME280;33517;49.866;8.320;2023-04-26T06:30:08;100771.56;;;16.00;47.42
12868;BME280;33517;49.866;8.320;2023-04-26T06:33:01;100768.66;;;17.85;44.51
12868;BME280;33517;49.866;8.320;2023-04-26T06:35:53;100767.16;;;19.31;41.81
12868;BME280;33517;49.866;8.320;2023-04-26T06:38:45;100766.03;;;19.83;40.48
12868;BME280;33517;49.866;8.320;2023-04-26T06:41:37;100762.84;;;20.49;38.94
12868;BME280;33517;49.866;8.320;2023-04-26T06:44:29;100768.13;;;20.73;37.76
12868;BME280;33517;49.866;8.320;2023-04-26T06:47:21;100758.47;;;20.90;38.08
12868;BME280;33517;49.866;8.320;2023-04-26T06:50:15;100761.44;;;22.65;37.56
12868;BME280;33517;49.866;8.320;2023-04-26T06:53:07;100757.78;;;23.62;36.03
12868;BME280;33517;49.866;8.320;2023-04-26T06:55:59;100751.28;;;23.92;35.27
12868;BME280;33517;49.866;8.320;2023-04-26T06:58:58;100756.31;;;22.29;37.26
12868;BME280;33517;49.866;8.320;2023-04-26T07:01:51;100757.44;;;21.69;37.66
12868;BME280;33517;49.866;8.320;2023-04-26T07:04:43;100763.16;;;21.72;37.30
12868;BME280;33517;49.866;8.320;2023-04-26T07:07:37;100759.47;;;21.44;36.21
12868;BME280;33517;49.866;8.320;2023-04-26T07:10:30;100762.78;;;21.28;36.54
12868;BME280;33517;49.866;8.320;2023-04-26T07:13:22;100755.56;;;20.56;36.10
12868;BME280;33517;49.866;8.320;2023-04-26T07:16:14;100759.47;;;19.86;38.40
12868;BME280;33517;49.866;8.320;2023-04-26T07:19:06;100756.19;;;20.76;37.40
12868;BME280;33517;49.866;8.320;2023-04-26T07:21:58;100751.94;;;23.26;34.67
12868;BME280;33517;49.866;8.320;2023-04-26T07:24:52;100745.44;;;24.66;33.44
12868;BME280;33517;49.866;8.320;2023-04-26T07:27:44;100740.56;;;25.49;32.14
12868;BME280;33517;49.866;8.320;2023-04-26T07:30:35;100742.16;;;24.42;33.17
12868;BME280;33517;49.866;8.320;2023-04-26T07:33:27;100743.00;;;23.48;33.57
12868;BME280;33517;49.866;8.320;2023-04-26T07:36:19;100748.47;;;22.39;35.00
12868;BME280;33517;49.866;8.320;2023-04-26T07:39:11;100742.28;;;23.25;33.76
12868;BME280;33517;49.866;8.320;2023-04-26T07:42:05;100747.19;;;22.53;33.47
12868;BME280;33517;49.866;8.320;2023-04-26T07:44:56;100749.91;;;21.00;35.38
12868;BME280;33517;49.866;8.320;2023-04-26T07:47:48;100749.41;;;21.98;34.24
12868;BME280;33517;49.866;8.320;2023-04-26T07:50:40;100746.25;;;23.78;31.51
12868;BME280;33517;49.866;8.320;2023-04-26T07:53:33;100739.72;;;24.41;30.58
12868;BME280;33517;49.866;8.320;2023-04-26T07:56:25;100745.28;;;23.40;30.67
12868;BME280;33517;49.866;8.320;2023-04-26T07:59:18;100751.03;;;22.11;33.29
12868;BME280;33517;49.866;8.320;2023-04-26T08:02:10;100745.44;;;21.60;33.01
12868;BME280;33517;49.866;8.320;2023-04-26T08:05:02;100748.19;;;21.53;33.53
12868;BME280;33517;49.866;8.320;2023-04-26T08:07:55;100745.97;;;21.21;32.35
12868;BME280;33517;49.866;8.320;2023-04-26T08:10:47;100751.34;;;23.35;31.20
12868;BME280;33517;49.866;8.320;2023-04-26T08:13:39;100753.19;;;23.46;31.18
12868;BME280;33517;49.866;8.320;2023-04-26T08:16:35;100761.81;;;24.43;30.50
12868;BME280;33517;49.866;8.320;2023-04-26T08:19:27;100755.44;;;25.09;29.19
12868;BME280;33517;49.866;8.320;2023-04-26T08:22:22;100750.34;;;25.87;29.42
12868;BME280;33517;49.866;8.320;2023-04-26T08:25:14;100756.09;;;27.36;26.87
12868;BME280;33517;49.866;8.320;2023-04-26T08:28:07;100755.78;;;28.83;25.77
12868;BME280;33517;49.866;8.320;2023-04-26T08:30:59;100753.69;;;28.60;26.00
12868;BME280;33517;49.866;8.320;2023-04-26T08:33:52;100756.91;;;28.77;26.29
12868;BME280;33517;49.866;8.320;2023-04-26T08:36:44;100761.09;;;29.14;25.35
12868;BME280;33517;49.866;8.320;2023-04-26T08:39:36;100749.91;;;25.69;26.68
12868;BME280;33517;49.866;8.320;2023-04-26T08:42:28;100758.59;;;23.79;28.61
12868;BME280;33517;49.866;8.320;2023-04-26T08:45:21;100743.50;;;23.06;29.96
12868;BME280;33517;49.866;8.320;2023-04-26T08:48:13;100741.00;;;22.18;30.31
12868;BME280;33517;49.866;8.320;2023-04-26T08:51:11;100748.22;;;22.87;30.44
12868;BME280;33517;49.866;8.320;2023-04-26T08:54:04;100739.53;;;23.48;30.38
12868;BME280;33517;49.866;8.320;2023-04-26T08:56:58;100739.47;;;23.76;29.85
12868;BME280;33517;49.866;8.320;2023-04-26T08:59:50;100731.56;;;23.69;30.03
12868;BME280;33517;49.866;8.320;2023-04-26T09:02:46;100739.97;;;22.54;29.42
12868;BME280;33517;49.866;8.320;2023-04-26T09:05:39;100742.06;;;22.52;30.04
12868;BME280;33517;49.866;8.320;2023-04-26T09:08:35;100733.41;;;24.90;28.31
12868;BME280;33517;49.866;8.320;2023-04-26T09:11:30;100737.09;;;27.16;26.82
12868;BME280;33517;49.866;8.320;2023-04-26T09:14:22;100730.47;;;28.14;26.45
12868;BME280;33517;49.866;8.320;2023-04-26T09:17:24;100736.84;;;26.19;28.42
12868;BME280;33517;49.866;8.320;2023-04-26T09:20:18;100731.78;;;24.89;29.34
12868;BME280;33517;49.866;8.320;2023-04-26T09:23:11;100729.34;;;24.11;29.58
12868;BME280;33517;49.866;8.320;2023-04-26T09:26:17;100734.19;;;24.31;29.54
12868;BME280;33517;49.866;8.320;2023-04-26T09:29:11;100731.56;;;24.96;28.99
12868;BME280;33517;49.866;8.320;2023-04-26T09:32:03;100729.25;;;24.44;27.11
12868;BME280;33517;49.866;8.320;2023-04-26T09:34:57;100721.38;;;23.71;29.65
12868;BME280;33517;49.866;8.320;2023-04-26T09:37:54;100720.66;;;25.07;28.89
12868;BME280;33517;49.866;8.320;2023-04-26T09:40:48;100717.25;;;23.36;29.79
12868;BME280;33517;49.866;8.320;2023-04-26T09:43:42;100715.59;;;21.97;31.13
12868;BME280;33517;49.866;8.320;2023-04-26T09:46:34;100724.44;;;21.86;30.46
12868;BME280;33517;49.866;8.320;2023-04-26T09:49:26;100711.72;;;20.75;31.68
12868;BME280;33517;49.866;8.320;2023-04-26T09:52:18;100716.75;;;20.04;31.97
12868;BME280;33517;49.866;8.320;2023-04-26T09:55:24;100712.66;;;18.64;33.43
12868;BME280;33517;49.866;8.320;2023-04-26T09:58:16;100712.72;;;18.31;33.67
12868;BME280;33517;49.866;8.320;2023-04-26T10:01:10;100714.16;;;18.27;33.48
12868;BME280;33517;49.866;8.320;2023-04-26T10:04:05;100720.09;;;17.90;34.54
12868;BME280;33517;49.866;8.320;2023-04-26T10:06:57;100718.88;;;17.66;34.58
12868;BME280;33517;49.866;8.320;2023-04-26T10:09:50;100717.00;;;17.54;34.67
12868;BME280;33517;49.866;8.320;2023-04-26T10:12:42;100709.03;;;17.60;34.56
12868;BME280;33517;49.866;8.320;2023-04-26T10:15:34;100707.13;;;17.47;34.91
12868;BME280;33517;49.866;8.320;2023-04-26T10:18:28;100710.66;;;17.74;35.04
12868;BME280;33517;49.866;8.320;2023-04-26T10:21:24;100701.66;;;17.69;34.84
12868;BME280;33517;49.866;8.320;2023-04-26T10:24:17;100704.13;;;18.03;34.71
12868;BME280;33517;49.866;8.320;2023-04-26T10:27:10;100693.16;;;18.70;33.85
12868;BME280;33517;49.866;8.320;2023-04-26T10:30:07;100698.50;;;18.70;33.51
12868;BME280;33517;49.866;8.320;2023-04-26T10:33:19;100701.38;;;18.62;34.30
12868;BME280;33517;49.866;8.320;2023-04-26T10:36:15;100688.31;;;19.67;33.22
12868;BME280;33517;49.866;8.320;2023-04-26T10:39:19;100695.47;;;20.58;31.21
12868;BME280;33517;49.866;8.320;2023-04-26T10:42:19;100692.41;;;21.39;30.71
12868;BME280;33517;49.866;8.320;2023-04-26T10:45:26;100685.97;;;22.73;30.12
12868;BME280;33517;49.866;8.320;2023-04-26T10:48:19;100678.53;;;23.98;28.54
12868;BME280;33517;49.866;8.320;2023-04-26T10:51:14;100670.69;;;25.16;25.89
12868;BME280;33517;49.866;8.320;2023-04-26T10:54:07;100669.00;;;23.41;26.52
12868;BME280;33517;49.866;8.320;2023-04-26T10:56:59;100661.25;;;21.67;28.81
12868;BME280;33517;49.866;8.320;2023-04-26T11:00:26;100668.19;;;21.98;28.86
12868;BME280;33517;49.866;8.320;2023-04-26T11:03:21;100664.13;;;24.21;27.33
12868;BME280;33517;49.866;8.320;2023-04-26T11:06:15;100654.03;;;24.11;27.70
12868;BME280;33517;49.866;8.320;2023-04-26T11:09:31;100656.81;;;24.38;26.50
12868;BME280;33517;49.866;8.320;2023-04-26T11:12:23;100653.13;;;26.61;24.91
12868;BME280;33517;49.866;8.320;2023-04-26T11:15:16;100654.28;;;29.09;25.07
12868;BME280;33517;49.866;8.320;2023-04-26T11:18:08;100663.66;;;30.70;22.45
12868;BME280;33517;49.866;8.320;2023-04-26T11:21:01;100660.88;;;30.33;22.62
12868;BME280;33517;49.866;8.320;2023-04-26T11:23:55;100652.91;;;30.13;21.96
12868;BME280;33517;49.866;8.320;2023-04-26T11:27:23;100647.06;;;30.01;22.42
12868;BME280;33517;49.866;8.320;2023-04-26T11:30:18;100639.94;;;28.60;21.79
12868;BME280;33517;49.866;8.320;2023-04-26T11:33:15;100627.72;;;26.05;24.22
12868;BME280;33517;49.866;8.320;2023-04-26T11:36:08;100637.94;;;27.87;23.16
12868;BME280;33517;49.866;8.320;2023-04-26T11:39:01;100633.09;;;27.49;22.52
12868;BME280;33517;49.866;8.320;2023-04-26T11:41:55;100629.44;;;28.44;22.63
12868;BME280;33517;49.866;8.320;2023-04-26T11:44:56;100632.63;;;29.48;22.35
12868;BME280;33517;49.866;8.320;2023-04-26T11:47:49;100629.88;;;30.34;22.23
12868;BME280;33517;49.866;8.320;2023-04-26T11:50:41;100630.47;;;29.06;21.85
12868;BME280;33517;49.866;8.320;2023-04-26T11:53:36;100631.69;;;25.24;24.05
12868;BME280;33517;49.866;8.320;2023-04-26T11:56:30;100626.38;;;23.44;25.90
12868;BME280;33517;49.866;8.320;2023-04-26T11:59:25;100623.88;;;24.31;25.78
12868;BME280;33517;49.866;8.320;2023-04-26T12:02:22;100618.25;;;27.61;24.70
12868;BME280;33517;49.866;8.320;2023-04-26T12:05:21;100611.25;;;30.28;23.00
12868;BME280;33517;49.866;8.320;2023-04-26T12:08:13;100611.91;;;29.57;21.85
12868;BME280;33517;49.866;8.320;2023-04-26T12:11:06;100614.25;;;26.57;23.54
12868;BME280;33517;49.866;8.320;2023-04-26T12:14:00;100620.72;;;24.77;25.09
12868;BME280;33517;49.866;8.320;2023-04-26T12:16:52;100611.22;;;24.96;24.60
12868;BME280;33517;49.866;8.320;2023-04-26T12:19:48;100613.59;;;25.83;23.80
12868;BME280;33517;49.866;8.320;2023-04-26T12:22:41;100607.88;;;28.18;22.65
12868;BME280;33517;49.866;8.320;2023-04-26T12:25:33;100609.81;;;29.16;21.98
12868;BME280;33517;49.866;8.320;2023-04-26T12:28:26;100600.09;;;27.21;22.78
12868;BME280;33517;49.866;8.320;2023-04-26T12:31:19;100613.63;;;27.72;23.12
12868;BME280;33517;49.866;8.320;2023-04-26T12:34:11;100600.66;;;27.69;23.18
12868;BME280;33517;49.866;8.320;2023-04-26T12:37:03;100613.00;;;26.89;22.82
12868;BME280;33517;49.866;8.320;2023-04-26T12:39:56;100609.78;;;25.79;23.67
12868;BME280;33517;49.866;8.320;2023-04-26T12:42:48;100603.19;;;25.01;24.04
12868;BME280;33517;49.866;8.320;2023-04-26T12:45:40;100603.06;;;24.43;25.15
12868;BME280;33517;49.866;8.320;2023-04-26T12:48:34;100607.94;;;23.86;25.99
12868;BME280;33517;49.866;8.320;2023-04-26T12:51:26;100601.88;;;23.29;26.15
12868;BME280;33517;49.866;8.320;2023-04-26T12:54:18;100607.09;;;22.12;26.36
12868;BME280;33517;49.866;8.320;2023-04-26T12:57:10;100601.63;;;21.72;26.67
12868;BME280;33517;49.866;8.320;2023-04-26T13:00:03;100602.63;;;20.95;27.78
12868;BME280;33517;49.866;8.320;2023-04-26T13:02:56;100602.31;;;20.73;28.13
12868;BME280;33517;49.866;8.320;2023-04-26T13:05:49;100599.69;;;20.85;28.38
12868;BME280;33517;49.866;8.320;2023-04-26T13:08:41;100599.19;;;21.06;28.53
12868;BME280;33517;49.866;8.320;2023-04-26T13:11:33;100606.44;;;20.87;28.12
12868;BME280;33517;49.866;8.320;2023-04-26T13:14:25;100605.16;;;20.42;28.60
12868;BME280;33517;49.866;8.320;2023-04-26T13:17:17;100602.88;;;20.28;28.62
12868;BME280;33517;49.866;8.320;2023-04-26T13:20:09;100597.16;;;20.42;28.93
12868;BME280;33517;49.866;8.320;2023-04-26T13:23:02;100593.19;;;20.63;28.92
12868;BME280;33517;49.866;8.320;2023-04-26T13:25:54;100596.25;;;20.12;29.04
12868;BME280;33517;49.866;8.320;2023-04-26T13:28:46;100598.66;;;20.20;29.12
12868;BME280;33517;49.866;8.320;2023-04-26T13:31:38;100595.00;;;20.14;28.06
12868;BME280;33517;49.866;8.320;2023-04-26T13:34:31;100597.19;;;19.01;29.62
12868;BME280;33517;49.866;8.320;2023-04-26T13:37:22;100590.41;;;19.29;29.63
12868;BME280;33517;49.866;8.320;2023-04-26T13:40:16;100592.53;;;19.21;29.24
12868;BME280;33517;49.866;8.320;2023-04-26T13:43:08;100590.63;;;19.03;29.42
12868;BME280;33517;49.866;8.320;2023-04-26T13:46:00;100596.75;;;18.66;29.94
12868;BME280;33517;49.866;8.320;2023-04-26T13:48:52;100586.56;;;18.57;30.36
12868;BME280;33517;49.866;8.320;2023-04-26T13:51:44;100582.94;;;18.38;30.23
12868;BME280;33517;49.866;8.320;2023-04-26T13:54:36;100584.56;;;18.52;30.08
12868;BME280;33517;49.866;8.320;2023-04-26T13:57:30;100583.41;;;18.73;30.60
12868;BME280;33517;49.866;8.320;2023-04-26T14:00:22;100584.09;;;18.62;30.50
12868;BME280;33517;49.866;8.320;2023-04-26T14:03:14;100582.69;;;18.53;30.52
12868;BME280;33517;49.866;8.320;2023-04-26T14:06:06;100581.59;;;18.09;30.77
12868;BME280;33517;49.866;8.320;2023-04-26T14:08:58;100577.31;;;18.02;31.11
12868;BME280;33517;49.866;8.320;2023-04-26T14:11:50;100576.31;;;17.96;30.80
12868;BME280;33517;49.866;8.320;2023-04-26T14:14:44;100568.28;;;18.03;31.39
12868;BME280;33517;49.866;8.320;2023-04-26T14:17:37;100576.97;;;17.46;31.55
12868;BME280;33517;49.866;8.320;2023-04-26T14:20:29;100573.47;;;17.13;31.87
12868;BME280;33517;49.866;8.320;2023-04-26T14:23:21;100568.97;;;17.46;32.36
12868;BME280;33517;49.866;8.320;2023-04-26T14:26:13;100572.09;;;17.56;32.76
12868;BME280;33517;49.866;8.320;2023-04-26T14:29:05;100560.50;;;18.01;31.51
12868;BME280;33517;49.866;8.320;2023-04-26T14:31:58;100560.69;;;18.19;31.25
12868;BME280;33517;49.866;8.320;2023-04-26T14:34:50;100561.22;;;18.34;31.25
12868;BME280;33517;49.866;8.320;2023-04-26T14:37:42;100553.28;;;18.21;31.39
12868;BME280;33517;49.866;8.320;2023-04-26T14:40:35;100553.91;;;18.23;31.90
12868;BME280;33517;49.866;8.320;2023-04-26T14:43:27;100549.63;;;18.09;31.76
12868;BME280;33517;49.866;8.320;2023-04-26T14:46:19;100548.19;;;18.20;32.38
12868;BME280;33517;49.866;8.320;2023-04-26T14:49:13;100554.50;;;18.25;32.51
12868;BME280;33517;49.866;8.320;2023-04-26T14:52:04;100539.25;;;17.95;32.10
12868;BME280;33517;49.866;8.320;2023-04-26T14:54:56;100553.25;;;17.31;32.64
12868;BME280;33517;49.866;8.320;2023-04-26T14:57:48;100545.06;;;17.07;32.77
12868;BME280;33517;49.866;8.320;2023-04-26T15:00:40;100538.28;;;17.04;32.70
12868;BME280;33517;49.866;8.320;2023-04-26T15:03:32;100541.94;;;16.77;33.43
12868;BME280;33517;49.866;8.320;2023-04-26T15:06:25;100541.63;;;16.39;33.70
12868;BME280;33517;49.866;8.320;2023-04-26T15:09:18;100542.78;;;16.24;34.14